Sault Stryders
Running Club
events news contact us
results links home

Muskoka Triathlon and Duathlon
Huntsville, Ontario
Sunday, June 20, 2004
as reported by www.SportsStats.com

Awards Ceremony Photos

                                                       Triathlon

-----FINAL---------------- ----------            2km                            55km                        15km
                            Category   ----------SWIM---------  ----- ----------BIKE--------  ----- ---------RUN---------
Pos   Time    Name         Plc/Total   Cat  Ovr   Time  /100m   Tr 1  Cat Ovr   Time  km/hr   Tr 2  Cat  Ovr   Time  /Km  
---- ------- ------------  ----------- -----------------------  ----- ----------------------  ----- ---------------------
43   3:06:07  Sherri Smith  4/14  B     4    42   30:08  1:31   0:54   6  121 1:35:28  34.6   0:44   3    35   58:55 3:56
173  3:23:52  Celia Moore   3/35  R    18   316   38:36  1:56   1:53   1  125 1:35:42  34.5   1:00   4   170 1:06:43 4:27
195  3:26:31  Eric Piscopo  4/31  K     3   207   35:42  1:48   1:38   7  294 1:43:23  31.9   1:09   2   134 1:04:40 4:19
253  3:32:51  Mark Fisher  45/93  G    55   367   39:48  2:00   1:53  41  237 1:40:27  32.9   1:08  46   255 1:09:36 4:39
299  3:38:39  Larry Tomie  21/56  J     7   176   34:51  1:45   2:41  32  390 1:47:43  30.6   1:58  20   292 1:11:29 4:46




                                                       Duathlon

-----FINAL----------------    ----------             3km                             55km                         15km
                                Category    ---------RU---M---------  ----- ----------BIKE--------  ----- ---------RUN---------
Pos   Time    Name             Plc/Total   Cat  Ovr   Time   /Km     Tr 1  Cat Ovr   Time  km/hr   Tr 2  Cat  Ovr   Time  /Km  
---- ------- ------------     -----------  -----------------------   ----- ----------------------  ----- ---------------------
26   3:05:15  Karen Birkenhead  1/7  RS     3   42   11:05   3:42    1:21   2  28  1:40:35  32.8   1:44   2   27  1:10:32 4:43



Triathlon Chase Format - Top 20 Elite Males and Females

RANK @    TIME @  START   FINAL
FINISH    FINISH  TIME    TIME                            CAT/TOT CA NUMB  
======    ======= ======= ======= ======================= ======= == ==== 
    1     10:40:35 8:00:00 2:40:35 MILES STEWART             1/18   A   17  
    2     10:40:46 8:00:00 2:40:46 TOM EVANS                 2/18   A    5  
    3     10:41:03 8:00:00 2:41:03 JASPER BLAKE              3/18   A    8  
    4     10:42:36 7:41:55 3:00:41 TEREZA MACEL              1/15   B   29  
    5     10:43:10 8:00:00 2:43:10 LUKE MCKENZIE             4/18   A    3  
    6     10:43:37 7:41:55 3:01:42 LISA BENTLEY              2/15   B   31  
    7     10:44:15 8:00:00 2:44:15 MATTHEW KOWALSKI          5/18   A   15  
    8     10:47:35 7:41:55 3:05:40 VERONIQUE FORTIN          3/15   B   32  
    9     10:47:53 8:00:00 2:47:53 DAVE HARJU                6/18   A    7  
   10     10:48:02 7:41:55 3:06:07 SHERRI SMITH              4/15   B   27  
   11     10:49:05 8:00:00 2:49:05 COLIN JENKINS             7/18   A   11  
   12     10:50:51 8:00:00 2:50:51 JAMIE STEPHENSON          8/18   A   10  
   13     10:51:00 7:41:55 3:09:05 ISABELLE GAGNON           5/15   B   26  
   14     10:51:27 7:41:55 3:09:32 MARIE DANAIS              6/15   B   25  
   15     10:52:34 8:00:00 2:52:34 KYLE W. GUEMBEL           9/18   A    1  
   16     10:53:20 8:00:00 2:53:20 JULIEN PERIARD           10/18   A    6  
   17     10:53:37 7:41:55 3:11:42 JESSICA KIRKWOOD          7/15   B   14  
   18     10:56:47 8:00:00 2:56:47 JEFF BEECH               11/18   A    9  
   19     10:57:17 8:00:00 2:57:17 CHRIS VAN BEURDEN        12/18   A   12  
   20     10:57:38 8:00:00 2:57:38 JONATHAN CARON           13/18   A   18